sensor_id;sensor_type;location;lat;lon;timestamp;temperature;humidity
39931;DHT22;26635;-35.248;149.138;2023-07-30T00:01:00;12.70;94.90
39931;DHT22;26635;-35.248;149.138;2023-07-30T00:03:30;12.70;94.80
39931;DHT22;26635;-35.248;149.138;2023-07-30T00:06:01;12.80;94.70
39931;DHT22;26635;-35.248;149.138;2023-07-30T00:08:32;13.00;94.40
39931;DHT22;26635;-35.248;149.138;2023-07-30T00:11:03;13.10;94.20
39931;DHT22;26635;-35.248;149.138;2023-07-30T00:13:34;13.10;94.30
39931;DHT22;26635;-35.248;149.138;2023-07-30T00:16:05;13.20;93.20
39931;DHT22;26635;-35.248;149.138;2023-07-30T00:18:35;13.30;93.70
39931;DHT22;26635;-35.248;149.138;2023-07-30T00:21:06;13.40;93.70
39931;DHT22;26635;-35.248;149.138;2023-07-30T00:23:36;13.50;93.50
39931;DHT22;26635;-35.248;149.138;2023-07-30T00:26:06;13.60;93.40
39931;DHT22;26635;-35.248;149.138;2023-07-30T00:28:37;13.70;93.30
39931;DHT22;26635;-35.248;149.138;2023-07-30T00:31:07;13.80;91.20
39931;DHT22;26635;-35.248;149.138;2023-07-30T00:33:38;13.90;90.20
39931;DHT22;26635;-35.248;149.138;2023-07-30T00:36:08;14.00;89.30
39931;DHT22;26635;-35.248;149.138;2023-07-30T00:38:39;14.00;88.50
39931;DHT22;26635;-35.248;149.138;2023-07-30T00:41:09;14.10;87.60
39931;DHT22;26635;-35.248;149.138;2023-07-30T00:43:39;14.20;87.60
39931;DHT22;26635;-35.248;149.138;2023-07-30T00:46:11;14.30;85.70
39931;DHT22;26635;-35.248;149.138;2023-07-30T00:48:42;14.30;86.00
39931;DHT22;26635;-35.248;149.138;2023-07-30T00:51:15;14.40;85.40
39931;DHT22;26635;-35.248;149.138;2023-07-30T00:53:46;14.40;84.70
39931;DHT22;26635;-35.248;149.138;2023-07-30T00:56:17;14.50;85.90
39931;DHT22;26635;-35.248;149.138;2023-07-30T00:58:49;14.50;85.80
39931;DHT22;26635;-35.248;149.138;2023-07-30T01:01:19;14.70;86.20
39931;DHT22;26635;-35.248;149.138;2023-07-30T01:03:50;14.70;84.10
39931;DHT22;26635;-35.248;149.138;2023-07-30T01:06:21;14.80;85.60
39931;DHT22;26635;-35.248;149.138;2023-07-30T01:08:52;14.90;84.30
39931;DHT22;26635;-35.248;149.138;2023-07-30T01:11:22;15.00;83.70
39931;DHT22;26635;-35.248;149.138;2023-07-30T01:13:54;15.10;82.40
39931;DHT22;26635;-35.248;149.138;2023-07-30T01:16:24;15.20;80.80
39931;DHT22;26635;-35.248;149.138;2023-07-30T01:18:55;15.20;77.50
39931;DHT22;26635;-35.248;149.138;2023-07-30T01:21:28;15.30;77.40
39931;DHT22;26635;-35.248;149.138;2023-07-30T01:24:00;15.40;75.40
39931;DHT22;26635;-35.248;149.138;2023-07-30T01:27:06;15.40;74.60
39931;DHT22;26635;-35.248;149.138;2023-07-30T01:29:52;15.40;75.40
39931;DHT22;26635;-35.248;149.138;2023-07-30T01:32:27;15.40;75.10
39931;DHT22;26635;-35.248;149.138;2023-07-30T01:34:59;15.60;74.30
39931;DHT22;26635;-35.248;149.138;2023-07-30T01:37:31;15.60;74.40
39931;DHT22;26635;-35.248;149.138;2023-07-30T01:40:02;15.80;73.50
39931;DHT22;26635;-35.248;149.138;2023-07-30T01:42:32;15.80;73.10
39931;DHT22;26635;-35.248;149.138;2023-07-30T01:45:04;15.90;71.90
39931;DHT22;26635;-35.248;149.138;2023-07-30T01:47:35;15.90;72.30
39931;DHT22;26635;-35.248;149.138;2023-07-30T01:50:06;15.90;71.70
39931;DHT22;26635;-35.248;149.138;2023-07-30T01:52:37;15.90;70.60
39931;DHT22;26635;-35.248;149.138;2023-07-30T01:55:11;15.90;70.80
39931;DHT22;26635;-35.248;149.138;2023-07-30T01:57:58;15.90;70.60
39931;DHT22;26635;-35.248;149.138;2023-07-30T02:00:32;15.90;71.40
39931;DHT22;26635;-35.248;149.138;2023-07-30T02:03:13;16.00;71.20
39931;DHT22;26635;-35.248;149.138;2023-07-30T02:05:43;16.00;69.90
39931;DHT22;26635;-35.248;149.138;2023-07-30T02:08:14;16.10;69.90
39931;DHT22;26635;-35.248;149.138;2023-07-30T02:10:55;16.10;69.80
39931;DHT22;26635;-35.248;149.138;2023-07-30T02:13:26;16.10;69.30
39931;DHT22;26635;-35.248;149.138;2023-07-30T02:15:56;16.20;69.80
39931;DHT22;26635;-35.248;149.138;2023-07-30T02:18:27;16.30;69.50
39931;DHT22;26635;-35.248;149.138;2023-07-30T02:20:57;16.30;68.90
39931;DHT22;26635;-35.248;149.138;2023-07-30T02:23:28;16.30;68.80
39931;DHT22;26635;-35.248;149.138;2023-07-30T02:25:58;16.40;69.30
39931;DHT22;26635;-35.248;149.138;2023-07-30T02:28:29;16.40;67.30
39931;DHT22;26635;-35.248;149.138;2023-07-30T02:31:00;16.40;68.40
39931;DHT22;26635;-35.248;149.138;2023-07-30T02:33:31;16.40;68.90
39931;DHT22;26635;-35.248;149.138;2023-07-30T02:36:02;16.40;67.80
39931;DHT22;26635;-35.248;149.138;2023-07-30T02:38:33;16.50;67.40
39931;DHT22;26635;-35.248;149.138;2023-07-30T02:41:03;16.50;67.80
39931;DHT22;26635;-35.248;149.138;2023-07-30T02:43:33;16.50;67.00
39931;DHT22;26635;-35.248;149.138;2023-07-30T02:46:04;16.40;67.10
39931;DHT22;26635;-35.248;149.138;2023-07-30T02:48:36;16.40;67.80
39931;DHT22;26635;-35.248;149.138;2023-07-30T02:51:06;16.50;67.10
39931;DHT22;26635;-35.248;149.138;2023-07-30T02:53:37;16.40;66.70
39931;DHT22;26635;-35.248;149.138;2023-07-30T02:56:07;16.50;67.60
39931;DHT22;26635;-35.248;149.138;2023-07-30T02:58:38;16.50;66.60
39931;DHT22;26635;-35.248;149.138;2023-07-30T03:01:10;16.50;66.90
39931;DHT22;26635;-35.248;149.138;2023-07-30T03:03:40;16.40;66.00
39931;DHT22;26635;-35.248;149.138;2023-07-30T03:06:11;16.40;66.00
39931;DHT22;26635;-35.248;149.138;2023-07-30T03:08:42;16.40;66.90
39931;DHT22;26635;-35.248;149.138;2023-07-30T03:11:13;16.40;66.20
39931;DHT22;26635;-35.248;149.138;2023-07-30T03:13:45;16.40;66.10
39931;DHT22;26635;-35.248;149.138;2023-07-30T03:16:17;16.40;67.90
39931;DHT22;26635;-35.248;149.138;2023-07-30T03:18:48;16.50;67.00
39931;DHT22;26635;-35.248;149.138;2023-07-30T03:21:19;16.50;66.00
39931;DHT22;26635;-35.248;149.138;2023-07-30T03:23:50;16.60;66.50
39931;DHT22;26635;-35.248;149.138;2023-07-30T03:26:21;16.60;65.10
39931;DHT22;26635;-35.248;149.138;2023-07-30T03:28:53;16.60;66.10
39931;DHT22;26635;-35.248;149.138;2023-07-30T03:31:24;16.60;65.10
39931;DHT22;26635;-35.248;149.138;2023-07-30T03:33:54;16.50;65.60
39931;DHT22;26635;-35.248;149.138;2023-07-30T03:36:25;16.50;65.00
39931;DHT22;26635;-35.248;149.138;2023-07-30T03:38:55;16.50;65.60
39931;DHT22;26635;-35.248;149.138;2023-07-30T03:41:26;16.50;65.50
39931;DHT22;26635;-35.248;149.138;2023-07-30T03:43:56;16.50;66.40
39931;DHT22;26635;-35.248;149.138;2023-07-30T03:46:27;16.40;65.60
39931;DHT22;26635;-35.248;149.138;2023-07-30T03:48:58;16.40;65.60
39931;DHT22;26635;-35.248;149.138;2023-07-30T03:51:29;16.40;65.40
39931;DHT22;26635;-35.248;149.138;2023-07-30T03:54:00;16.30;65.40
39931;DHT22;26635;-35.248;149.138;2023-07-30T03:56:31;16.30;65.30
39931;DHT22;26635;-35.248;149.138;2023-07-30T03:59:03;16.30;65.30
39931;DHT22;26635;-35.248;149.138;2023-07-30T04:01:34;16.30;65.20
39931;DHT22;26635;-35.248;149.138;2023-07-30T04:04:06;16.30;65.70
39931;DHT22;26635;-35.248;149.138;2023-07-30T04:06:36;16.30;66.00
39931;DHT22;26635;-35.248;149.138;2023-07-30T04:09:06;16.30;66.50
39931;DHT22;26635;-35.248;149.138;2023-07-30T04:11:38;16.30;64.10
39931;DHT22;26635;-35.248;149.138;2023-07-30T04:14:08;16.30;64.70
39931;DHT22;26635;-35.248;149.138;2023-07-30T04:16:38;16.40;64.70
39931;DHT22;26635;-35.248;149.138;2023-07-30T04:19:09;16.30;65.20
39931;DHT22;26635;-35.248;149.138;2023-07-30T04:21:39;16.30;64.20
39931;DHT22;26635;-35.248;149.138;2023-07-30T04:24:09;16.20;64.50
39931;DHT22;26635;-35.248;149.138;2023-07-30T04:26:40;16.20;64.80
39931;DHT22;26635;-35.248;149.138;2023-07-30T04:29:11;16.20;65.00
39931;DHT22;26635;-35.248;149.138;2023-07-30T04:31:43;16.20;64.20
39931;DHT22;26635;-35.248;149.138;2023-07-30T04:34:14;16.20;64.30
39931;DHT22;26635;-35.248;149.138;2023-07-30T04:36:44;16.30;63.90
39931;DHT22;26635;-35.248;149.138;2023-07-30T04:39:15;16.30;62.60
39931;DHT22;26635;-35.248;149.138;2023-07-30T04:41:46;16.20;63.50
39931;DHT22;26635;-35.248;149.138;2023-07-30T04:44:17;16.20;63.30
39931;DHT22;26635;-35.248;149.138;2023-07-30T04:46:47;16.20;62.80
39931;DHT22;26635;-35.248;149.138;2023-07-30T04:49:18;16.20;62.80
39931;DHT22;26635;-35.248;149.138;2023-07-30T04:51:48;16.20;63.40
39931;DHT22;26635;-35.248;149.138;2023-07-30T04:54:18;16.20;62.50
39931;DHT22;26635;-35.248;149.138;2023-07-30T04:56:50;16.10;62.70
39931;DHT22;26635;-35.248;149.138;2023-07-30T04:59:20;16.10;63.20
39931;DHT22;26635;-35.248;149.138;2023-07-30T05:01:50;16.10;64.00
39931;DHT22;26635;-35.248;149.138;2023-07-30T05:04:21;16.10;63.30
39931;DHT22;26635;-35.248;149.138;2023-07-30T05:06:51;16.10;64.30
39931;DHT22;26635;-35.248;149.138;2023-07-30T05:09:21;16.10;64.20
39931;DHT22;26635;-35.248;149.138;2023-07-30T05:11:52;16.00;64.70
39931;DHT22;26635;-35.248;149.138;2023-07-30T05:14:22;15.90;64.40
39931;DHT22;26635;-35.248;149.138;2023-07-30T05:16:53;16.00;65.00
39931;DHT22;26635;-35.248;149.138;2023-07-30T05:19:23;16.00;65.00
39931;DHT22;26635;-35.248;149.138;2023-07-30T05:21:53;15.90;65.30
39931;DHT22;26635;-35.248;149.138;2023-07-30T05:24:24;15.90;66.10
39931;DHT22;26635;-35.248;149.138;2023-07-30T05:26:55;15.90;65.40
39931;DHT22;26635;-35.248;149.138;2023-07-30T05:29:25;15.80;65.60
39931;DHT22;26635;-35.248;149.138;2023-07-30T05:31:56;15.90;65.40
39931;DHT22;26635;-35.248;149.138;2023-07-30T05:34:26;15.80;65.80
39931;DHT22;26635;-35.248;149.138;2023-07-30T05:36:57;15.80;65.80
39931;DHT22;26635;-35.248;149.138;2023-07-30T05:39:27;15.70;66.40
39931;DHT22;26635;-35.248;149.138;2023-07-30T05:41:57;15.70;66.50
39931;DHT22;26635;-35.248;149.138;2023-07-30T05:44:28;15.70;66.90
39931;DHT22;26635;-35.248;149.138;2023-07-30T05:46:58;15.70;66.60
39931;DHT22;26635;-35.248;149.138;2023-07-30T05:49:28;15.60;66.90
39931;DHT22;26635;-35.248;149.138;2023-07-30T05:51:58;15.60;67.80
39931;DHT22;26635;-35.248;149.138;2023-07-30T05:54:29;15.60;67.00
39931;DHT22;26635;-35.248;149.138;2023-07-30T05:56:59;15.50;68.10
39931;DHT22;26635;-35.248;149.138;2023-07-30T05:59:29;15.50;67.00
39931;DHT22;26635;-35.248;149.138;2023-07-30T06:02:02;15.50;67.20
39931;DHT22;26635;-35.248;149.138;2023-07-30T06:04:33;15.40;66.90
39931;DHT22;26635;-35.248;149.138;2023-07-30T06:07:04;15.30;66.80
39931;DHT22;26635;-35.248;149.138;2023-07-30T06:09:34;15.30;67.20
39931;DHT22;26635;-35.248;149.138;2023-07-30T06:12:05;15.20;67.80
39931;DHT22;26635;-35.248;149.138;2023-07-30T06:14:36;15.10;68.60
39931;DHT22;26635;-35.248;149.138;2023-07-30T06:17:06;15.00;68.50
39931;DHT22;26635;-35.248;149.138;2023-07-30T06:19:37;14.90;68.50
39931;DHT22;26635;-35.248;149.138;2023-07-30T06:22:08;14.80;68.70
39931;DHT22;26635;-35.248;149.138;2023-07-30T06:24:39;14.80;69.40
39931;DHT22;26635;-35.248;149.138;2023-07-30T06:27:10;14.70;69.40
39931;DHT22;26635;-35.248;149.138;2023-07-30T06:29:41;14.70;68.80
39931;DHT22;26635;-35.248;149.138;2023-07-30T06:32:12;14.60;69.30
39931;DHT22;26635;-35.248;149.138;2023-07-30T06:34:42;14.60;69.30
39931;DHT22;26635;-35.248;149.138;2023-07-30T06:37:12;14.50;69.60
39931;DHT22;26635;-35.248;149.138;2023-07-30T06:39:43;14.50;69.50
39931;DHT22;26635;-35.248;149.138;2023-07-30T06:42:13;14.40;69.00
39931;DHT22;26635;-35.248;149.138;2023-07-30T06:44:43;14.30;69.30
39931;DHT22;26635;-35.248;149.138;2023-07-30T06:47:14;14.30;68.90
39931;DHT22;26635;-35.248;149.138;2023-07-30T06:49:44;14.20;70.00
39931;DHT22;26635;-35.248;149.138;2023-07-30T06:52:15;14.10;70.00
39931;DHT22;26635;-35.248;149.138;2023-07-30T06:54:45;14.10;70.40
39931;DHT22;26635;-35.248;149.138;2023-07-30T06:57:16;14.00;71.00
39931;DHT22;26635;-35.248;149.138;2023-07-30T06:59:46;13.90;71.20
39931;DHT22;26635;-35.248;149.138;2023-07-30T07:02:16;13.80;71.40
39931;DHT22;26635;-35.248;149.138;2023-07-30T07:04:47;13.80;71.40
39931;DHT22;26635;-35.248;149.138;2023-07-30T07:07:17;13.70;71.70
39931;DHT22;26635;-35.248;149.138;2023-07-30T07:09:47;13.70;71.50
39931;DHT22;26635;-35.248;149.138;2023-07-30T07:12:19;13.70;72.00
39931;DHT22;26635;-35.248;149.138;2023-07-30T07:14:49;13.60;72.30
39931;DHT22;26635;-35.248;149.138;2023-07-30T07:17:19;13.40;72.40
39931;DHT22;26635;-35.248;149.138;2023-07-30T07:19:50;13.40;72.20
39931;DHT22;26635;-35.248;149.138;2023-07-30T07:22:21;13.40;73.20
39931;DHT22;26635;-35.248;149.138;2023-07-30T07:24:52;13.30;72.90
39931;DHT22;26635;-35.248;149.138;2023-07-30T07:27:23;13.20;72.90
39931;DHT22;26635;-35.248;149.138;2023-07-30T07:29:53;13.20;73.10
39931;DHT22;26635;-35.248;149.138;2023-07-30T07:32:24;13.10;73.30
39931;DHT22;26635;-35.248;149.138;2023-07-30T07:34:56;13.10;73.80
39931;DHT22;26635;-35.248;149.138;2023-07-30T07:37:26;13.00;74.20
39931;DHT22;26635;-35.248;149.138;2023-07-30T07:39:57;13.00;74.20
39931;DHT22;26635;-35.248;149.138;2023-07-30T07:42:29;12.90;74.20
39931;DHT22;26635;-35.248;149.138;2023-07-30T07:45:00;12.90;75.30
39931;DHT22;26635;-35.248;149.138;2023-07-30T07:47:30;12.90;75.10
39931;DHT22;26635;-35.248;149.138;2023-07-30T07:50:00;12.90;75.20
39931;DHT22;26635;-35.248;149.138;2023-07-30T07:52:31;12.90;75.20
39931;DHT22;26635;-35.248;149.138;2023-07-30T07:55:01;12.90;75.60
39931;DHT22;26635;-35.248;149.138;2023-07-30T07:57:32;12.80;75.70
39931;DHT22;26635;-35.248;149.138;2023-07-30T08:00:06;12.80;76.20
39931;DHT22;26635;-35.248;149.138;2023-07-30T08:02:37;12.70;76.30
39931;DHT22;26635;-35.248;149.138;2023-07-30T08:05:07;12.70;76.60
39931;DHT22;26635;-35.248;149.138;2023-07-30T08:07:38;12.60;77.40
39931;DHT22;26635;-35.248;149.138;2023-07-30T08:10:08;12.50;77.90
39931;DHT22;26635;-35.248;149.138;2023-07-30T08:12:40;12.50;78.40
39931;DHT22;26635;-35.248;149.138;2023-07-30T08:15:10;12.40;78.70
39931;DHT22;26635;-35.248;149.138;2023-07-30T08:17:41;12.40;79.70
39931;DHT22;26635;-35.248;149.138;2023-07-30T08:20:11;12.30;79.70
39931;DHT22;26635;-35.248;149.138;2023-07-30T08:22:42;12.30;79.40
39931;DHT22;26635;-35.248;149.138;2023-07-30T08:25:12;12.30;80.00
39931;DHT22;26635;-35.248;149.138;2023-07-30T08:27:43;12.20;80.50
39931;DHT22;26635;-35.248;149.138;2023-07-30T08:30:13;12.20;80.30
39931;DHT22;26635;-35.248;149.138;2023-07-30T08:32:43;12.10;80.30
39931;DHT22;26635;-35.248;149.138;2023-07-30T08:35:14;12.10;80.90
39931;DHT22;26635;-35.248;149.138;2023-07-30T08:37:44;12.00;82.30
39931;DHT22;26635;-35.248;149.138;2023-07-30T08:40:15;12.00;82.00
39931;DHT22;26635;-35.248;149.138;2023-07-30T08:42:46;12.00;82.10
39931;DHT22;26635;-35.248;149.138;2023-07-30T08:45:17;12.00;82.50
39931;DHT22;26635;-35.248;149.138;2023-07-30T08:47:47;11.90;82.80
39931;DHT22;26635;-35.248;149.138;2023-07-30T08:50:19;11.90;83.00
39931;DHT22;26635;-35.248;149.138;2023-07-30T08:52:50;11.90;83.20
39931;DHT22;26635;-35.248;149.138;2023-07-30T08:55:23;11.90;83.30
39931;DHT22;26635;-35.248;149.138;2023-07-30T08:57:55;11.90;83.70
39931;DHT22;26635;-35.248;149.138;2023-07-30T09:00:26;11.80;83.90
39931;DHT22;26635;-35.248;149.138;2023-07-30T09:03:04;11.80;84.30
39931;DHT22;26635;-35.248;149.138;2023-07-30T09:05:35;11.80;84.20
39931;DHT22;26635;-35.248;149.138;2023-07-30T09:08:06;11.80;84.60
39931;DHT22;26635;-35.248;149.138;2023-07-30T09:10:41;11.70;84.80
39931;DHT22;26635;-35.248;149.138;2023-07-30T09:13:12;11.70;85.20
39931;DHT22;26635;-35.248;149.138;2023-07-30T09:15:50;11.60;85.20
39931;DHT22;26635;-35.248;149.138;2023-07-30T09:18:22;11.60;85.60
39931;DHT22;26635;-35.248;149.138;2023-07-30T09:20:52;11.60;85.50
39931;DHT22;26635;-35.248;149.138;2023-07-30T09:23:23;11.60;85.60
39931;DHT22;26635;-35.248;149.138;2023-07-30T09:25:58;11.60;86.20
39931;DHT22;26635;-35.248;149.138;2023-07-30T09:28:31;11.60;86.00
39931;DHT22;26635;-35.248;149.138;2023-07-30T09:31:04;11.50;86.00
39931;DHT22;26635;-35.248;149.138;2023-07-30T09:33:49;11.50;86.10
39931;DHT22;26635;-35.248;149.138;2023-07-30T09:36:20;11.40;86.50
39931;DHT22;26635;-35.248;149.138;2023-07-30T09:38:53;11.40;86.70
39931;DHT22;26635;-35.248;149.138;2023-07-30T09:41:26;11.30;87.00
39931;DHT22;26635;-35.248;149.138;2023-07-30T09:43:59;11.30;87.40
39931;DHT22;26635;-35.248;149.138;2023-07-30T09:46:29;11.30;87.60
39931;DHT22;26635;-35.248;149.138;2023-07-30T09:49:01;11.20;87.30
39931;DHT22;26635;-35.248;149.138;2023-07-30T09:51:36;11.20;87.60
39931;DHT22;26635;-35.248;149.138;2023-07-30T09:54:11;11.20;88.00
39931;DHT22;26635;-35.248;149.138;2023-07-30T09:56:42;11.20;88.10
39931;DHT22;26635;-35.248;149.138;2023-07-30T09:59:13;11.20;88.20
39931;DHT22;26635;-35.248;149.138;2023-07-30T10:01:48;11.20;88.30
39931;DHT22;26635;-35.248;149.138;2023-07-30T10:04:26;11.20;88.20
39931;DHT22;26635;-35.248;149.138;2023-07-30T10:07:03;11.30;88.40
39931;DHT22;26635;-35.248;149.138;2023-07-30T10:09:43;11.30;88.40
39931;DHT22;26635;-35.248;149.138;2023-07-30T10:12:24;11.30;88.40
39931;DHT22;26635;-35.248;149.138;2023-07-30T10:14:56;11.40;88.50
39931;DHT22;26635;-35.248;149.138;2023-07-30T10:17:27;11.40;88.50
39931;DHT22;26635;-35.248;149.138;2023-07-30T10:20:39;11.40;88.50
39931;DHT22;26635;-35.248;149.138;2023-07-30T10:23:10;11.40;88.30
39931;DHT22;26635;-35.248;149.138;2023-07-30T10:25:53;11.40;88.50
39931;DHT22;26635;-35.248;149.138;2023-07-30T10:31:04;11.40;88.50
39931;DHT22;26635;-35.248;149.138;2023-07-30T10:33:51;11.40;88.60
39931;DHT22;26635;-35.248;149.138;2023-07-30T10:36:33;11.40;88.80
39931;DHT22;26635;-35.248;149.138;2023-07-30T10:41:52;11.40;88.90
39931;DHT22;26635;-35.248;149.138;2023-07-30T10:44:28;11.40;89.10
39931;DHT22;26635;-35.248;149.138;2023-07-30T10:47:00;11.40;89.20
39931;DHT22;26635;-35.248;149.138;2023-07-30T10:49:37;11.40;89.30
39931;DHT22;26635;-35.248;149.138;2023-07-30T10:52:19;11.40;89.70
39931;DHT22;26635;-35.248;149.138;2023-07-30T10:55:00;11.40;89.80
39931;DHT22;26635;-35.248;149.138;2023-07-30T10:57:31;11.40;90.00
39931;DHT22;26635;-35.248;149.138;2023-07-30T11:00:03;11.40;90.20
39931;DHT22;26635;-35.248;149.138;2023-07-30T11:02:34;11.40;90.20
39931;DHT22;26635;-35.248;149.138;2023-07-30T11:05:17;11.40;90.20
39931;DHT22;26635;-35.248;149.138;2023-07-30T11:07:52;11.40;90.30
39931;DHT22;26635;-35.248;149.138;2023-07-30T11:10:22;11.40;90.30
39931;DHT22;26635;-35.248;149.138;2023-07-30T11:12:53;11.40;90.20
39931;DHT22;26635;-35.248;149.138;2023-07-30T11:15:24;11.40;90.40
39931;DHT22;26635;-35.248;149.138;2023-07-30T11:17:54;11.40;90.60
39931;DHT22;26635;-35.248;149.138;2023-07-30T11:20:27;11.40;90.60
39931;DHT22;26635;-35.248;149.138;2023-07-30T11:22:59;11.40;90.60
39931;DHT22;26635;-35.248;149.138;2023-07-30T11:25:29;11.30;90.70
39931;DHT22;26635;-35.248;149.138;2023-07-30T11:27:59;11.30;90.60
39931;DHT22;26635;-35.248;149.138;2023-07-30T11:30:33;11.30;90.80
39931;DHT22;26635;-35.248;149.138;2023-07-30T11:33:03;11.20;90.80
39931;DHT22;26635;-35.248;149.138;2023-07-30T11:35:33;11.20;90.80
39931;DHT22;26635;-35.248;149.138;2023-07-30T11:38:04;11.20;90.90
39931;DHT22;26635;-35.248;149.138;2023-07-30T11:40:34;11.20;91.00
39931;DHT22;26635;-35.248;149.138;2023-07-30T11:43:05;11.20;91.10
39931;DHT22;26635;-35.248;149.138;2023-07-30T11:45:35;11.20;91.00
39931;DHT22;26635;-35.248;149.138;2023-07-30T11:48:07;11.20;90.80
39931;DHT22;26635;-35.248;149.138;2023-07-30T11:50:49;11.20;90.80
39931;DHT22;26635;-35.248;149.138;2023-07-30T11:53:20;11.20;90.90
39931;DHT22;26635;-35.248;149.138;2023-07-30T11:55:50;11.20;91.00
39931;DHT22;26635;-35.248;149.138;2023-07-30T11:58:20;11.20;91.00
39931;DHT22;26635;-35.248;149.138;2023-07-30T12:00:51;11.20;90.90
39931;DHT22;26635;-35.248;149.138;2023-07-30T12:03:21;11.10;90.90
39931;DHT22;26635;-35.248;149.138;2023-07-30T12:05:55;11.10;91.00
39931;DHT22;26635;-35.248;149.138;2023-07-30T12:08:29;11.00;91.30
39931;DHT22;26635;-35.248;149.138;2023-07-30T12:11:06;11.00;91.20
39931;DHT22;26635;-35.248;149.138;2023-07-30T12:13:44;11.00;91.20
39931;DHT22;26635;-35.248;149.138;2023-07-30T12:16:16;11.00;91.10
39931;DHT22;26635;-35.248;149.138;2023-07-30T12:18:49;11.00;91.10
39931;DHT22;26635;-35.248;149.138;2023-07-30T12:21:19;11.00;91.10
39931;DHT22;26635;-35.248;149.138;2023-07-30T12:23:49;11.00;90.90
39931;DHT22;26635;-35.248;149.138;2023-07-30T12:26:20;11.00;91.00
39931;DHT22;26635;-35.248;149.138;2023-07-30T12:28:50;10.90;90.90
39931;DHT22;26635;-35.248;149.138;2023-07-30T12:31:20;10.90;91.00
39931;DHT22;26635;-35.248;149.138;2023-07-30T12:33:51;10.90;90.90
39931;DHT22;26635;-35.248;149.138;2023-07-30T12:36:22;10.90;91.00
39931;DHT22;26635;-35.248;149.138;2023-07-30T12:38:52;10.90;91.00
39931;DHT22;26635;-35.248;149.138;2023-07-30T12:41:23;10.80;91.00
39931;DHT22;26635;-35.248;149.138;2023-07-30T12:43:57;10.80;91.40
39931;DHT22;26635;-35.248;149.138;2023-07-30T12:46:27;10.70;90.80
39931;DHT22;26635;-35.248;149.138;2023-07-30T12:49:00;10.70;90.90
39931;DHT22;26635;-35.248;149.138;2023-07-30T12:51:33;10.70;90.70
39931;DHT22;26635;-35.248;149.138;2023-07-30T12:54:07;10.70;90.80
39931;DHT22;26635;-35.248;149.138;2023-07-30T12:56:37;10.70;90.50
39931;DHT22;26635;-35.248;149.138;2023-07-30T12:59:08;10.70;90.40
39931;DHT22;26635;-35.248;149.138;2023-07-30T13:01:39;10.60;90.30
39931;DHT22;26635;-35.248;149.138;2023-07-30T13:04:14;10.60;90.20
39931;DHT22;26635;-35.248;149.138;2023-07-30T13:06:44;10.60;90.30
39931;DHT22;26635;-35.248;149.138;2023-07-30T13:09:15;10.60;90.20
39931;DHT22;26635;-35.248;149.138;2023-07-30T13:11:45;10.50;90.20
39931;DHT22;26635;-35.248;149.138;2023-07-30T13:14:15;10.50;90.50
39931;DHT22;26635;-35.248;149.138;2023-07-30T13:16:46;10.50;90.30
39931;DHT22;26635;-35.248;149.138;2023-07-30T13:19:17;10.50;90.00
39931;DHT22;26635;-35.248;149.138;2023-07-30T13:21:47;10.50;90.20
39931;DHT22;26635;-35.248;149.138;2023-07-30T13:24:17;10.50;90.20
39931;DHT22;26635;-35.248;149.138;2023-07-30T13:26:48;10.50;90.10
39931;DHT22;26635;-35.248;149.138;2023-07-30T13:29:18;10.40;90.10
39931;DHT22;26635;-35.248;149.138;2023-07-30T13:31:49;10.40;89.90
39931;DHT22;26635;-35.248;149.138;2023-07-30T13:34:19;10.40;90.10
39931;DHT22;26635;-35.248;149.138;2023-07-30T13:36:49;10.40;90.00
39931;DHT22;26635;-35.248;149.138;2023-07-30T13:39:20;10.30;90.10
39931;DHT22;26635;-35.248;149.138;2023-07-30T13:41:50;10.30;89.90
39931;DHT22;26635;-35.248;149.138;2023-07-30T13:44:20;10.30;90.20
39931;DHT22;26635;-35.248;149.138;2023-07-30T13:46:51;10.30;90.10
39931;DHT22;26635;-35.248;149.138;2023-07-30T13:49:22;10.30;90.10
39931;DHT22;26635;-35.248;149.138;2023-07-30T13:51:53;10.20;90.10
39931;DHT22;26635;-35.248;149.138;2023-07-30T13:54:23;10.20;90.00
39931;DHT22;26635;-35.248;149.138;2023-07-30T13:56:53;10.10;90.10
39931;DHT22;26635;-35.248;149.138;2023-07-30T13:59:23;10.00;90.20
39931;DHT22;26635;-35.248;149.138;2023-07-30T14:01:54;9.90;90.40
39931;DHT22;26635;-35.248;149.138;2023-07-30T14:04:24;9.80;90.40
39931;DHT22;26635;-35.248;149.138;2023-07-30T14:06:54;9.80;90.50
39931;DHT22;26635;-35.248;149.138;2023-07-30T14:09:25;9.70;90.70
39931;DHT22;26635;-35.248;149.138;2023-07-30T14:12:02;9.70;91.10
39931;DHT22;26635;-35.248;149.138;2023-07-30T14:14:33;9.60;90.60
39931;DHT22;26635;-35.248;149.138;2023-07-30T14:17:03;9.50;90.80
39931;DHT22;26635;-35.248;149.138;2023-07-30T14:19:36;9.50;91.00
39931;DHT22;26635;-35.248;149.138;2023-07-30T14:22:06;9.50;91.00
39931;DHT22;26635;-35.248;149.138;2023-07-30T14:24:36;9.50;91.00
39931;DHT22;26635;-35.248;149.138;2023-07-30T14:27:08;9.40;90.90
39931;DHT22;26635;-35.248;149.138;2023-07-30T14:29:38;9.40;90.80
39931;DHT22;26635;-35.248;149.138;2023-07-30T14:32:09;9.40;90.90
39931;DHT22;26635;-35.248;149.138;2023-07-30T14:34:39;9.40;90.90
39931;DHT22;26635;-35.248;149.138;2023-07-30T14:37:09;9.40;90.70
39931;DHT22;26635;-35.248;149.138;2023-07-30T14:39:39;9.30;90.80
39931;DHT22;26635;-35.248;149.138;2023-07-30T14:42:10;9.30;91.00
39931;DHT22;26635;-35.248;149.138;2023-07-30T14:44:40;9.30;91.00
39931;DHT22;26635;-35.248;149.138;2023-07-30T14:47:11;9.30;91.60
39931;DHT22;26635;-35.248;149.138;2023-07-30T14:49:42;9.30;90.80
39931;DHT22;26635;-35.248;149.138;2023-07-30T14:52:12;9.30;90.60
39931;DHT22;26635;-35.248;149.138;2023-07-30T14:54:43;9.30;90.40
39931;DHT22;26635;-35.248;149.138;2023-07-30T14:57:14;9.20;90.60
39931;DHT22;26635;-35.248;149.138;2023-07-30T14:59:44;9.20;90.50
39931;DHT22;26635;-35.248;149.138;2023-07-30T15:02:14;9.20;90.20
39931;DHT22;26635;-35.248;149.138;2023-07-30T15:04:45;9.20;90.20
39931;DHT22;26635;-35.248;149.138;2023-07-30T15:07:15;9.20;90.20
39931;DHT22;26635;-35.248;149.138;2023-07-30T15:09:46;9.30;90.10
39931;DHT22;26635;-35.248;149.138;2023-07-30T15:12:41;9.30;90.10
39931;DHT22;26635;-35.248;149.138;2023-07-30T15:15:11;9.20;89.90
39931;DHT22;26635;-35.248;149.138;2023-07-30T15:17:42;9.30;90.40
39931;DHT22;26635;-35.248;149.138;2023-07-30T15:20:12;9.20;89.00
39931;DHT22;26635;-35.248;149.138;2023-07-30T15:22:42;9.20;88.40